createdAt,value
2018-11-10T00:00:03.547Z,20.30
2018-11-10T00:00:37.458Z,19.80
2018-11-10T00:01:10.307Z,19.73
2018-11-10T00:01:42.990Z,19.40
2018-11-10T00:02:15.814Z,20.20
2018-11-10T00:02:49.187Z,20.57
2018-11-10T00:03:21.877Z,19.92
2018-11-10T00:03:54.675Z,19.02
2018-11-10T00:04:27.337Z,19.15
2018-11-10T00:05:00.013Z,19.80
2018-11-10T00:05:32.785Z,19.05
2018-11-10T00:06:05.463Z,19.82
2018-11-10T00:06:38.129Z,19.37
2018-11-10T00:07:10.803Z,19.42
2018-11-10T00:07:43.483Z,19.15
2018-11-10T00:08:32.107Z,18.37
2018-11-10T00:09:05.819Z,19.20
2018-11-10T00:09:38.493Z,19.02
2018-11-10T00:10:11.218Z,18.52
2018-11-10T00:10:43.866Z,19.92
2018-11-10T00:11:16.532Z,18.85
2018-11-10T00:11:49.182Z,19.27
2018-11-10T00:12:21.819Z,19.02
2018-11-10T00:12:54.479Z,19.10
2018-11-10T00:13:27.123Z,19.02
2018-11-10T00:13:59.795Z,19.27
2018-11-10T00:14:32.447Z,19.35
2018-11-10T00:15:07.413Z,19.50
2018-11-10T00:15:40.090Z,18.55
2018-11-10T00:16:12.735Z,19.00
2018-11-10T00:16:45.407Z,19.27
2018-11-10T00:17:18.054Z,18.35
2018-11-10T00:17:50.751Z,19.07
2018-11-10T00:18:23.416Z,19.55
2018-11-10T00:18:56.089Z,18.67
2018-11-10T00:19:28.768Z,18.32
2018-11-10T00:20:01.436Z,18.05
2018-11-10T00:20:34.091Z,18.80
2018-11-10T00:21:06.841Z,18.77
2018-11-10T00:21:39.483Z,18.40
2018-11-10T00:22:12.157Z,18.65
2018-11-10T00:22:44.806Z,18.70
2018-11-10T00:23:17.479Z,18.67
2018-11-10T00:23:50.133Z,18.92
2018-11-10T00:24:22.837Z,18.75
2018-11-10T00:24:55.549Z,18.70
2018-11-10T00:25:28.206Z,18.73
2018-11-10T00:26:00.871Z,18.57
2018-11-10T00:26:33.533Z,18.82
2018-11-10T00:27:06.205Z,18.48
2018-11-10T00:27:39.455Z,18.87
2018-11-10T00:28:12.093Z,19.02
2018-11-10T00:28:44.752Z,18.85
2018-11-10T00:29:17.424Z,18.52
2018-11-10T00:29:50.079Z,18.45
2018-11-10T00:30:22.757Z,18.62
2018-11-10T00:30:55.426Z,18.20
2018-11-10T00:31:28.096Z,18.82
2018-11-10T00:32:00.777Z,19.17
2018-11-10T00:32:33.423Z,18.45
2018-11-10T00:33:06.133Z,18.32
2018-11-10T00:33:38.797Z,18.48
2018-11-10T00:34:11.445Z,19.10
2018-11-10T00:34:44.204Z,19.20
2018-11-10T00:35:16.838Z,18.85
2018-11-10T00:35:49.501Z,19.30
2018-11-10T00:36:22.169Z,18.77
2018-11-10T00:36:54.830Z,18.67
2018-11-10T00:37:27.481Z,18.57
2018-11-10T00:38:00.143Z,17.82
2018-11-10T00:38:32.775Z,18.95
2018-11-10T00:39:07.100Z,18.95
2018-11-10T00:39:39.843Z,18.82
2018-11-10T00:40:13.729Z,18.70
2018-11-10T00:40:46.423Z,19.10
2018-11-10T00:41:19.089Z,18.85
2018-11-10T00:41:51.764Z,18.32
2018-11-10T00:42:24.445Z,18.60
2018-11-10T00:42:57.109Z,18.32
2018-11-10T00:43:29.775Z,19.07
2018-11-10T00:44:02.473Z,18.62
2018-11-10T00:44:35.217Z,18.57
2018-11-10T00:45:08.224Z,19.02
2018-11-10T00:45:40.873Z,18.20
2018-11-10T00:46:13.545Z,19.07
2018-11-10T00:46:46.203Z,18.60
2018-11-10T00:47:18.879Z,19.17
2018-11-10T00:47:51.557Z,18.45
2018-11-10T00:48:24.236Z,18.85
2018-11-10T00:48:56.897Z,18.32
2018-11-10T00:49:29.569Z,18.50
2018-11-10T00:50:02.303Z,18.92
2018-11-10T00:50:35.105Z,18.02
2018-11-10T00:51:07.791Z,18.37
2018-11-10T00:51:40.457Z,19.25
2018-11-10T00:52:13.131Z,17.92
2018-11-10T00:52:45.787Z,18.35
2018-11-10T00:53:18.465Z,18.17
2018-11-10T00:53:51.110Z,18.67
2018-11-10T00:54:23.787Z,18.07
2018-11-10T00:54:56.447Z,18.37
2018-11-10T00:55:29.120Z,19.52
2018-11-10T00:56:01.797Z,18.73
2018-11-10T00:56:34.531Z,18.45
2018-11-10T00:57:07.211Z,19.55
2018-11-10T00:57:39.923Z,18.80
2018-11-10T00:58:12.577Z,19.02
2018-11-10T00:58:45.267Z,18.82
2018-11-10T00:59:18.237Z,18.82
2018-11-10T00:59:50.900Z,18.35
2018-11-10T01:00:23.569Z,18.23
2018-11-10T01:00:56.219Z,18.98
2018-11-10T01:01:28.905Z,18.50
2018-11-10T01:02:01.588Z,18.62
2018-11-10T01:02:34.263Z,18.65
2018-11-10T01:03:06.955Z,19.48
2018-11-10T01:03:39.647Z,19.15
2018-11-10T01:04:12.309Z,18.60
2018-11-10T01:04:44.973Z,18.52
2018-11-10T01:05:17.643Z,18.50
2018-11-10T01:05:50.341Z,18.73
2018-11-10T01:06:22.983Z,19.27
2018-11-10T01:06:55.670Z,18.92
2018-11-10T01:07:28.503Z,19.45
2018-11-10T01:08:01.156Z,18.65
2018-11-10T01:08:33.836Z,18.67
2018-11-10T01:09:07.268Z,19.15
2018-11-10T01:09:39.903Z,18.82
2018-11-10T01:10:13.233Z,18.87
2018-11-10T01:10:45.889Z,18.85
2018-11-10T01:11:18.565Z,18.82
2018-11-10T01:11:51.213Z,19.40
2018-11-10T01:12:23.887Z,19.35
2018-11-10T01:12:56.529Z,19.17
2018-11-10T01:13:29.196Z,18.75
2018-11-10T01:14:01.904Z,18.45
2018-11-10T01:14:34.965Z,18.60
2018-11-10T01:15:09.223Z,18.90
2018-11-10T01:15:41.939Z,18.73
2018-11-10T01:16:14.623Z,18.85
2018-11-10T01:16:47.299Z,18.23
2018-11-10T01:17:19.943Z,17.85
2018-11-10T01:17:52.609Z,18.10
2018-11-10T01:18:25.274Z,18.40
2018-11-10T01:18:57.949Z,17.95
2018-11-10T01:19:30.625Z,18.45
2018-11-10T01:23:10.084Z,17.65
2018-11-10T01:23:42.804Z,18.10
2018-11-10T01:24:15.461Z,17.85
2018-11-10T01:24:48.133Z,17.87
2018-11-10T01:25:20.797Z,18.48
2018-11-10T01:25:53.511Z,18.80
2018-11-10T01:26:26.208Z,17.07
2018-11-10T01:26:58.897Z,17.95
2018-11-10T01:27:31.566Z,17.67
2018-11-10T01:28:04.577Z,18.27
2018-11-10T01:28:37.187Z,18.17
2018-11-10T01:29:09.915Z,17.50
2018-11-10T01:29:42.630Z,17.55
2018-11-10T01:30:16.111Z,17.90
2018-11-10T01:30:48.812Z,17.60
2018-11-10T01:31:21.558Z,17.32
2018-11-10T01:31:54.241Z,17.40
2018-11-10T01:32:26.960Z,17.62
2018-11-10T01:32:59.602Z,18.57
2018-11-10T01:33:32.292Z,18.30
2018-11-10T01:34:04.968Z,17.82
2018-11-10T01:34:37.654Z,17.87
2018-11-10T01:35:10.314Z,17.87
2018-11-10T01:35:42.977Z,17.75
2018-11-10T01:36:15.628Z,18.12
2018-11-10T01:36:48.294Z,17.95
2018-11-10T01:37:20.929Z,18.10
2018-11-10T01:37:53.615Z,18.15
2018-11-10T01:38:26.275Z,17.75
2018-11-10T01:39:00.628Z,18.30
2018-11-10T01:39:33.302Z,17.90
2018-11-10T01:40:07.695Z,18.02
2018-11-10T01:40:40.390Z,18.10
2018-11-10T01:41:13.048Z,17.27
2018-11-10T01:41:45.726Z,18.30
2018-11-10T01:42:18.366Z,18.48
2018-11-10T01:42:51.055Z,17.70
2018-11-10T01:43:23.745Z,17.17
2018-11-10T01:43:56.398Z,18.02
2018-11-10T01:44:29.072Z,18.57
2018-11-10T01:45:01.774Z,17.48
2018-11-10T01:45:34.453Z,17.62
2018-11-10T01:46:07.118Z,17.95
2018-11-10T01:46:39.751Z,17.70
2018-11-10T01:47:12.422Z,18.02
2018-11-10T01:47:45.844Z,17.85
2018-11-10T01:48:18.538Z,18.37
2018-11-10T01:48:51.218Z,17.95
2018-11-10T01:49:23.882Z,18.23
2018-11-10T01:49:56.551Z,18.05
2018-11-10T01:50:29.197Z,17.07
2018-11-10T01:51:01.872Z,17.90
2018-11-10T01:51:34.551Z,17.52
2018-11-10T01:52:07.235Z,17.80
2018-11-10T01:52:40.536Z,17.92
2018-11-10T01:53:13.201Z,17.95
2018-11-10T01:53:45.856Z,17.77
2018-11-10T01:54:18.550Z,18.02
2018-11-10T01:54:51.200Z,17.02
2018-11-10T01:55:23.860Z,18.07
2018-11-10T01:55:56.506Z,18.32
2018-11-10T01:56:29.200Z,18.25
2018-11-10T01:57:01.857Z,18.60
2018-11-10T01:57:34.734Z,18.37
2018-11-10T01:58:07.426Z,18.37
2018-11-10T01:58:40.085Z,18.10
2018-11-10T01:59:12.779Z,18.37
2018-11-10T01:59:45.458Z,18.70
2018-11-10T02:00:18.699Z,18.37
2018-11-10T02:00:51.369Z,18.65
2018-11-10T02:01:24.046Z,18.17
2018-11-10T02:01:56.723Z,18.30
2018-11-10T02:02:29.388Z,18.73
2018-11-10T02:03:02.028Z,18.42
2018-11-10T02:03:34.692Z,18.05
2018-11-10T02:04:07.340Z,18.37
2018-11-10T02:04:40.034Z,18.80
2018-11-10T02:05:12.881Z,18.73
2018-11-10T02:05:45.552Z,18.40
2018-11-10T02:06:18.238Z,18.07
2018-11-10T02:06:51.085Z,18.77
2018-11-10T02:07:23.752Z,18.80
2018-11-10T02:07:56.472Z,18.00
2018-11-10T02:08:29.125Z,18.95
2018-11-10T02:09:01.846Z,18.70
2018-11-10T02:09:34.535Z,18.57
2018-11-10T02:10:08.324Z,18.32
2018-11-10T02:10:40.982Z,18.82
2018-11-10T02:11:13.742Z,18.35
2018-11-10T02:11:46.433Z,18.62
2018-11-10T02:12:19.109Z,18.12
2018-11-10T02:12:51.761Z,19.00
2018-11-10T02:13:24.474Z,18.23
2018-11-10T02:13:57.126Z,18.67
2018-11-10T02:14:29.808Z,18.02
2018-11-10T02:15:02.559Z,18.42
2018-11-10T02:15:35.204Z,18.00
2018-11-10T02:16:07.896Z,19.02
2018-11-10T02:16:40.558Z,18.40
2018-11-10T02:17:13.208Z,18.02
2018-11-10T02:17:45.907Z,18.57
2018-11-10T02:18:18.600Z,18.37
2018-11-10T02:18:51.242Z,18.27
2018-11-10T02:19:23.981Z,18.10
2018-11-10T02:19:56.656Z,17.95
2018-11-10T02:20:29.340Z,17.80
2018-11-10T02:21:02.042Z,18.17
2018-11-10T02:21:34.760Z,18.50
2018-11-10T02:22:07.408Z,18.82
2018-11-10T02:22:40.332Z,18.37
2018-11-10T02:23:13.044Z,18.65
2018-11-10T02:23:45.778Z,18.62
2018-11-10T02:24:18.506Z,18.05
2018-11-10T02:24:51.205Z,18.35
2018-11-10T02:25:23.875Z,18.37
2018-11-10T02:25:56.570Z,18.02
2018-11-10T02:26:29.280Z,18.70
2018-11-10T02:27:01.996Z,18.82
2018-11-10T02:27:34.736Z,18.37
2018-11-10T02:28:07.444Z,19.20
2018-11-10T02:28:40.128Z,18.30
2018-11-10T02:29:12.811Z,17.50
2018-11-10T02:29:45.479Z,18.95
2018-11-10T02:30:18.145Z,18.12
2018-11-10T02:30:50.798Z,18.77
2018-11-10T02:31:23.574Z,18.48
2018-11-10T02:31:56.238Z,18.65
2018-11-10T02:32:28.905Z,18.85
2018-11-10T02:33:01.560Z,18.55
2018-11-10T02:33:34.258Z,18.42
2018-11-10T02:34:06.935Z,18.50
2018-11-10T02:34:39.593Z,18.73
2018-11-10T02:35:12.386Z,18.57
2018-11-10T02:35:45.043Z,19.30
2018-11-10T02:36:17.707Z,18.55
2018-11-10T02:36:50.385Z,17.82
2018-11-10T02:37:23.058Z,18.25
2018-11-10T02:37:55.722Z,18.35
2018-11-10T02:38:28.438Z,18.15
2018-11-10T02:39:01.089Z,17.85
2018-11-10T02:39:33.779Z,18.15
2018-11-10T02:40:09.252Z,18.30
2018-11-10T02:40:41.961Z,17.73
2018-11-10T02:41:14.600Z,17.92
2018-11-10T02:41:47.273Z,18.15
2018-11-10T02:42:19.932Z,17.55
2018-11-10T02:42:52.589Z,17.80
2018-11-10T02:43:25.231Z,16.93
2018-11-10T02:43:57.903Z,17.65
2018-11-10T02:44:30.553Z,17.25
2018-11-10T02:45:03.268Z,17.02
2018-11-10T02:45:35.963Z,17.90
2018-11-10T02:46:08.625Z,17.52
2018-11-10T02:46:41.277Z,17.23
2018-11-10T02:47:13.955Z,16.67
2018-11-10T02:47:46.622Z,17.73
2018-11-10T02:48:19.274Z,17.45
2018-11-10T02:48:51.934Z,17.15
2018-11-10T02:49:24.592Z,17.07
2018-11-10T02:49:57.251Z,16.82
2018-11-10T02:50:29.896Z,16.67
2018-11-10T02:51:02.580Z,17.50
2018-11-10T02:51:35.210Z,17.37
2018-11-10T02:52:07.873Z,17.40
2018-11-10T02:52:40.602Z,16.60
2018-11-10T02:53:13.271Z,16.90
2018-11-10T02:53:45.909Z,16.93
2018-11-10T02:54:18.567Z,16.77
2018-11-10T02:54:51.244Z,17.37
2018-11-10T02:55:23.904Z,16.95
2018-11-10T02:55:56.612Z,17.30
2018-11-10T02:56:29.295Z,17.30
2018-11-10T02:57:01.996Z,16.82
2018-11-10T02:57:34.665Z,17.30
2018-11-10T02:58:07.320Z,17.40
2018-11-10T02:58:39.999Z,17.25
2018-11-10T02:59:12.685Z,16.85
2018-11-10T02:59:45.346Z,17.40
2018-11-10T03:00:18.045Z,17.50
2018-11-10T03:00:50.705Z,17.12
2018-11-10T03:01:23.355Z,16.62
2018-11-10T03:01:55.996Z,16.73
2018-11-10T03:02:28.690Z,17.25
2018-11-10T03:03:01.341Z,16.60
2018-11-10T03:03:34.016Z,16.73
2018-11-10T03:04:06.695Z,17.00
2018-11-10T03:04:39.343Z,16.48
2018-11-10T03:05:11.995Z,17.20
2018-11-10T03:05:44.672Z,16.42
2018-11-10T03:06:17.343Z,17.07
2018-11-10T03:06:50.019Z,16.37
2018-11-10T03:07:22.681Z,16.12
2018-11-10T03:07:55.342Z,16.25
2018-11-10T03:08:28.015Z,16.90
2018-11-10T03:09:00.657Z,16.23
2018-11-10T03:09:33.323Z,16.77
2018-11-10T03:10:06.998Z,16.62
2018-11-10T03:10:39.679Z,16.42
2018-11-10T03:11:12.431Z,16.20
2018-11-10T03:11:45.115Z,16.32
2018-11-10T03:12:17.771Z,16.52
2018-11-10T03:12:50.428Z,16.25
2018-11-10T03:13:23.079Z,16.35
2018-11-10T03:13:55.731Z,16.40
2018-11-10T03:14:28.408Z,16.85
2018-11-10T03:15:01.182Z,16.52
2018-11-10T03:15:33.831Z,16.87
2018-11-10T03:16:06.491Z,15.95
2018-11-10T03:16:39.165Z,16.50
2018-11-10T03:17:11.955Z,16.40
2018-11-10T03:17:44.613Z,16.85
2018-11-10T03:18:17.277Z,16.48
2018-11-10T03:18:49.933Z,16.55
2018-11-10T03:19:22.651Z,16.00
2018-11-10T03:19:55.318Z,15.95
2018-11-10T03:20:27.973Z,16.35
2018-11-10T03:21:00.643Z,15.90
2018-11-10T03:21:33.470Z,16.20
2018-11-10T03:22:06.139Z,16.73
2018-11-10T03:22:38.799Z,16.30
2018-11-10T03:23:11.435Z,16.02
2018-11-10T03:23:44.109Z,16.27
2018-11-10T03:24:16.790Z,16.20
2018-11-10T03:24:49.449Z,15.93
2018-11-10T03:25:22.115Z,16.50
2018-11-10T03:25:54.790Z,15.90
2018-11-10T03:26:27.419Z,16.10
2018-11-10T03:27:00.099Z,16.02
2018-11-10T03:27:32.769Z,15.63
2018-11-10T03:28:05.700Z,16.00
2018-11-10T03:28:38.447Z,15.80
2018-11-10T03:29:11.083Z,16.48
2018-11-10T03:29:43.775Z,15.75
2018-11-10T03:30:16.443Z,16.23
2018-11-10T03:30:49.103Z,16.10
2018-11-10T03:31:21.988Z,16.15
2018-11-10T03:31:54.636Z,15.90
2018-11-10T03:32:27.311Z,16.65
2018-11-10T03:32:59.995Z,15.98
2018-11-10T03:33:32.661Z,16.05
2018-11-10T03:34:05.389Z,16.10
2018-11-10T03:34:38.029Z,16.00
2018-11-10T03:35:10.723Z,16.25
2018-11-10T03:35:43.379Z,16.12
2018-11-10T03:36:16.052Z,15.20
2018-11-10T03:36:48.709Z,16.23
2018-11-10T03:37:21.391Z,16.32
2018-11-10T03:37:54.048Z,16.05
2018-11-10T03:38:26.715Z,16.40
2018-11-10T03:38:59.378Z,15.60
2018-11-10T03:39:32.045Z,16.40
2018-11-10T03:40:06.371Z,16.10
2018-11-10T03:40:39.068Z,16.07
2018-11-10T03:41:11.739Z,16.05
2018-11-10T03:41:44.404Z,16.07
2018-11-10T03:42:17.056Z,16.07
2018-11-10T03:42:49.752Z,15.58
2018-11-10T03:43:22.407Z,15.98
2018-11-10T03:43:55.057Z,16.02
2018-11-10T03:44:27.741Z,16.37
2018-11-10T03:45:00.409Z,16.10
2018-11-10T03:45:33.139Z,15.80
2018-11-10T03:46:05.875Z,16.12
2018-11-10T03:46:38.531Z,16.30
2018-11-10T03:47:11.203Z,16.45
2018-11-10T03:47:43.885Z,16.20
2018-11-10T03:48:16.553Z,15.45
2018-11-10T03:48:49.299Z,15.65
2018-11-10T03:49:21.903Z,15.98
2018-11-10T03:49:54.575Z,16.12
2018-11-10T03:50:27.268Z,16.10
2018-11-10T03:50:59.921Z,15.98
2018-11-10T03:51:32.643Z,15.75
2018-11-10T03:52:05.319Z,15.32
2018-11-10T03:52:38.107Z,15.90
2018-11-10T03:53:10.765Z,15.75
2018-11-10T03:53:43.453Z,15.80
2018-11-10T03:54:16.116Z,15.68
2018-11-10T03:54:48.802Z,16.05
2018-11-10T03:55:21.458Z,16.20
2018-11-10T03:55:54.119Z,16.50
2018-11-10T03:56:26.793Z,15.23
2018-11-10T03:56:59.459Z,15.80
2018-11-10T03:57:32.121Z,15.98
2018-11-10T03:58:04.820Z,15.63
2018-11-10T03:58:37.503Z,15.48
2018-11-10T03:59:10.192Z,16.05
2018-11-10T03:59:42.859Z,16.20
2018-11-10T04:00:15.540Z,16.12
2018-11-10T04:00:48.199Z,16.32
2018-11-10T04:01:20.866Z,15.45
2018-11-10T04:01:53.555Z,16.30
2018-11-10T04:02:26.203Z,15.95
2018-11-10T04:02:58.888Z,16.25
2018-11-10T04:03:31.560Z,16.07
2018-11-10T04:04:04.259Z,16.27
2018-11-10T04:04:36.923Z,15.48
2018-11-10T04:05:10.332Z,15.90
2018-11-10T04:05:42.988Z,15.68
2018-11-10T04:06:15.896Z,15.58
2018-11-10T04:06:48.530Z,16.20
2018-11-10T04:07:21.199Z,15.90
2018-11-10T04:07:53.857Z,16.23
2018-11-10T04:08:26.546Z,16.50
2018-11-10T04:08:59.208Z,16.10
2018-11-10T04:09:31.859Z,16.25
2018-11-10T04:10:04.890Z,15.83
2018-11-10T04:10:37.575Z,15.72
2018-11-10T04:11:10.227Z,16.17
2018-11-10T04:11:42.915Z,15.93
2018-11-10T04:12:15.556Z,16.25
2018-11-10T04:12:48.224Z,15.98
2018-11-10T04:13:20.875Z,16.27
2018-11-10T04:13:53.556Z,15.88
2018-11-10T04:14:26.201Z,15.78
2018-11-10T04:14:58.867Z,15.60
2018-11-10T04:15:31.559Z,16.32
2018-11-10T04:16:04.256Z,15.80
2018-11-10T04:16:36.901Z,16.42
2018-11-10T04:17:09.562Z,16.10
2018-11-10T04:17:42.264Z,16.55
2018-11-10T04:18:14.940Z,16.20
2018-11-10T04:18:47.576Z,16.12
2018-11-10T04:19:20.254Z,16.62
2018-11-10T04:19:52.894Z,16.80
2018-11-10T04:20:25.564Z,16.40
2018-11-10T04:20:58.237Z,16.70
2018-11-10T04:21:30.898Z,16.62
2018-11-10T04:22:03.664Z,15.98
2018-11-10T04:22:37.290Z,16.70
2018-11-10T04:23:09.955Z,16.60
2018-11-10T04:23:42.615Z,16.90
2018-11-10T04:24:15.279Z,16.73
2018-11-10T04:24:47.923Z,16.67
2018-11-10T04:25:20.590Z,16.55
2018-11-10T04:25:53.263Z,17.20
2018-11-10T04:26:25.911Z,15.93
2018-11-10T04:26:58.561Z,16.17
2018-11-10T04:27:31.902Z,16.62
2018-11-10T04:28:04.946Z,17.00
2018-11-10T04:28:37.615Z,16.60
2018-11-10T04:29:10.350Z,16.47
2018-11-10T04:29:43.022Z,16.55
2018-11-10T04:30:15.666Z,16.10
2018-11-10T04:30:48.332Z,16.07
2018-11-10T04:31:20.994Z,16.62
2018-11-10T04:31:53.659Z,16.57
2018-11-10T04:32:26.300Z,16.57
2018-11-10T04:32:58.954Z,16.50
2018-11-10T04:33:31.688Z,16.55
2018-11-10T04:34:05.144Z,16.15
2018-11-10T04:34:37.802Z,16.07
2018-11-10T04:35:10.470Z,15.95
2018-11-10T04:35:43.152Z,15.93
2018-11-10T04:36:15.812Z,16.27
2018-11-10T04:36:48.466Z,16.55
2018-11-10T04:37:21.134Z,17.15
2018-11-10T04:37:53.772Z,16.60
2018-11-10T04:38:26.482Z,16.25
2018-11-10T04:38:59.170Z,16.23
2018-11-10T04:39:31.822Z,16.60
2018-11-10T04:40:05.258Z,16.40
2018-11-10T04:40:37.927Z,16.17
2018-11-10T04:41:10.584Z,16.60
2018-11-10T04:41:43.258Z,15.60
2018-11-10T04:42:15.946Z,16.65
2018-11-10T04:42:48.588Z,16.42
2018-11-10T04:43:21.256Z,16.50
2018-11-10T04:43:53.896Z,16.40
2018-11-10T04:44:26.566Z,16.37
2018-11-10T04:44:59.225Z,16.23
2018-11-10T04:45:31.878Z,16.40
2018-11-10T04:46:04.624Z,16.25
2018-11-10T04:46:37.300Z,15.63
2018-11-10T04:47:09.974Z,16.10
2018-11-10T04:47:42.654Z,16.17
2018-11-10T04:48:15.304Z,16.67
2018-11-10T04:48:47.984Z,16.60
2018-11-10T04:49:20.636Z,16.37
2018-11-10T04:49:53.383Z,16.07
2018-11-10T04:50:25.973Z,16.52
2018-11-10T04:50:58.644Z,16.97
2018-11-10T04:51:31.312Z,16.42
2018-11-10T04:52:04.252Z,16.35
2018-11-10T04:52:36.922Z,16.40
2018-11-10T04:53:09.585Z,16.30
2018-11-10T04:53:42.266Z,15.98
2018-11-10T04:54:14.960Z,16.05
2018-11-10T04:54:47.636Z,16.27
2018-11-10T04:55:20.292Z,16.48
2018-11-10T04:55:52.983Z,15.90
2018-11-10T04:56:25.620Z,16.17
2018-11-10T04:56:58.286Z,16.12
2018-11-10T04:57:30.932Z,15.68
2018-11-10T04:58:03.631Z,15.90
2018-11-10T04:58:36.288Z,16.12
2018-11-10T04:59:09.166Z,15.30
2018-11-10T04:59:41.852Z,16.27
2018-11-10T05:00:15.126Z,15.60
2018-11-10T05:00:47.788Z,15.60
2018-11-10T05:01:20.481Z,15.30
2018-11-10T05:01:53.134Z,15.78
2018-11-10T05:02:25.831Z,15.75
2018-11-10T05:02:58.480Z,16.00
2018-11-10T05:03:31.138Z,15.58
2018-11-10T05:04:04.068Z,15.43
2018-11-10T05:04:36.740Z,16.00
2018-11-10T05:05:09.398Z,15.10
2018-11-10T05:05:42.055Z,15.50
2018-11-10T05:06:14.732Z,16.00
2018-11-10T05:06:47.397Z,16.07
2018-11-10T05:07:20.070Z,16.05
2018-11-10T05:07:52.716Z,16.00
2018-11-10T05:08:25.382Z,15.72
2018-11-10T05:08:58.029Z,16.20
2018-11-10T05:09:30.670Z,15.95
2018-11-10T05:10:03.463Z,16.27
2018-11-10T05:10:36.098Z,15.30
2018-11-10T05:11:08.766Z,16.05
2018-11-10T05:11:41.452Z,15.70
2018-11-10T05:12:14.123Z,15.80
2018-11-10T05:12:46.798Z,15.70
2018-11-10T05:13:19.448Z,14.93
2018-11-10T05:13:52.110Z,15.23
2018-11-10T05:14:25.171Z,15.60
2018-11-10T05:14:57.820Z,15.50
2018-11-10T05:15:30.462Z,14.80
2018-11-10T05:16:03.144Z,15.18
2018-11-10T05:16:35.804Z,14.80
2018-11-10T05:17:08.528Z,15.58
2018-11-10T05:17:41.338Z,15.88
2018-11-10T05:18:14.049Z,15.55
2018-11-10T05:18:46.712Z,15.30
2018-11-10T05:19:19.388Z,15.32
2018-11-10T05:19:52.070Z,15.43
2018-11-10T05:20:24.751Z,15.58
2018-11-10T05:20:57.404Z,15.40
2018-11-10T05:21:30.090Z,15.53
2018-11-10T05:22:02.756Z,15.32
2018-11-10T05:22:35.481Z,15.13
2018-11-10T05:23:08.142Z,15.78
2018-11-10T05:23:40.813Z,15.60
2018-11-10T05:24:13.511Z,15.18
2018-11-10T05:24:46.162Z,15.50
2018-11-10T05:25:18.887Z,15.90
2018-11-10T05:25:51.541Z,15.75
2018-11-10T05:26:24.186Z,15.58
2018-11-10T05:26:56.874Z,15.98
2018-11-10T05:27:29.623Z,16.20
2018-11-10T05:28:02.256Z,16.27
2018-11-10T05:28:34.897Z,16.27
2018-11-10T05:29:07.859Z,16.20
2018-11-10T05:29:40.510Z,16.02
2018-11-10T05:30:13.208Z,15.95
2018-11-10T05:30:45.883Z,16.00
2018-11-10T05:31:18.552Z,16.65
2018-11-10T05:31:51.192Z,16.65
2018-11-10T05:32:23.834Z,16.02
2018-11-10T05:32:56.497Z,17.02
2018-11-10T05:33:29.173Z,16.62
2018-11-10T05:34:01.845Z,16.85
2018-11-10T05:34:34.542Z,16.50
2018-11-10T05:35:07.693Z,16.70
2018-11-10T05:35:40.336Z,16.57
2018-11-10T05:36:13.005Z,16.73
2018-11-10T05:36:45.687Z,16.75
2018-11-10T05:37:18.345Z,17.10
2018-11-10T05:37:51.003Z,16.40
2018-11-10T05:38:23.697Z,16.82
2018-11-10T05:38:56.419Z,16.67
2018-11-10T05:39:29.095Z,17.27
2018-11-10T05:40:01.777Z,17.00
2018-11-10T05:40:34.449Z,16.97
2018-11-10T05:41:07.113Z,16.97
2018-11-10T05:41:39.914Z,17.30
2018-11-10T05:42:12.589Z,17.15
2018-11-10T05:42:45.274Z,17.20
2018-11-10T05:43:17.944Z,16.97
2018-11-10T05:43:50.611Z,16.30
2018-11-10T05:44:23.255Z,17.42
2018-11-10T05:44:55.902Z,17.12
2018-11-10T05:45:28.549Z,17.42
2018-11-10T05:46:01.199Z,17.10
2018-11-10T05:46:33.849Z,16.80
2018-11-10T05:47:06.517Z,17.75
2018-11-10T05:47:39.251Z,17.17
2018-11-10T05:48:11.921Z,17.57
2018-11-10T05:48:44.565Z,17.15
2018-11-10T05:49:17.241Z,15.93
2018-11-10T05:49:49.883Z,17.25
2018-11-10T05:50:22.556Z,16.97
2018-11-10T05:50:55.229Z,17.17
2018-11-10T05:51:27.891Z,16.73
2018-11-10T05:52:00.561Z,16.97
2018-11-10T05:52:33.227Z,17.02
2018-11-10T05:53:05.882Z,16.67
2018-11-10T05:53:38.751Z,16.90
2018-11-10T05:54:11.433Z,17.12
2018-11-10T05:54:44.091Z,16.60
2018-11-10T05:55:16.743Z,16.97
2018-11-10T05:55:49.418Z,17.25
2018-11-10T05:56:22.094Z,17.02
2018-11-10T05:56:54.787Z,17.55
2018-11-10T05:57:27.419Z,16.77
2018-11-10T05:58:00.108Z,16.75
2018-11-10T05:58:32.773Z,16.90
2018-11-10T05:59:05.637Z,16.45
2018-11-10T05:59:38.306Z,16.62
2018-11-10T06:00:12.289Z,16.85
2018-11-10T06:00:44.943Z,16.85
2018-11-10T06:01:17.645Z,16.42
2018-11-10T06:01:50.287Z,17.07
2018-11-10T06:02:22.965Z,16.77
2018-11-10T06:02:55.636Z,16.10
2018-11-10T06:03:28.291Z,16.37
2018-11-10T06:04:00.925Z,16.60
2018-11-10T06:04:33.596Z,15.63
2018-11-10T06:05:06.288Z,15.80
2018-11-10T06:05:38.965Z,16.77
2018-11-10T06:06:11.675Z,16.02
2018-11-10T06:06:44.347Z,16.42
2018-11-10T06:07:16.997Z,16.48
2018-11-10T06:07:49.645Z,15.98
2018-11-10T06:08:22.307Z,15.45
2018-11-10T06:08:55.005Z,16.37
2018-11-10T06:09:27.691Z,16.10
2018-11-10T06:10:00.487Z,15.53
2018-11-10T06:10:33.013Z,16.67
2018-11-10T06:11:05.743Z,15.00
2018-11-10T06:11:38.965Z,15.72
2018-11-10T06:12:11.639Z,15.43
2018-11-10T06:12:44.303Z,16.07
2018-11-10T06:13:17.021Z,15.20
2018-11-10T06:13:49.707Z,15.50
2018-11-10T06:14:22.370Z,15.78
2018-11-10T06:14:55.031Z,15.78
2018-11-10T06:15:27.701Z,15.60
2018-11-10T06:16:00.409Z,15.23
2018-11-10T06:16:33.088Z,15.48
2018-11-10T06:17:05.794Z,15.35
2018-11-10T06:17:38.825Z,15.85
2018-11-10T06:18:11.485Z,16.05
2018-11-10T06:18:44.206Z,15.70
2018-11-10T06:19:16.842Z,15.50
2018-11-10T06:19:49.511Z,15.68
2018-11-10T06:20:22.180Z,15.80
2018-11-10T06:20:54.833Z,15.43
2018-11-10T06:21:27.511Z,15.00
2018-11-10T06:22:00.209Z,15.20
2018-11-10T06:22:32.952Z,15.80
2018-11-10T06:23:05.615Z,15.35
2018-11-10T06:23:38.309Z,15.50
2018-11-10T06:24:10.993Z,15.55
2018-11-10T06:24:43.647Z,16.05
2018-11-10T06:25:16.351Z,15.60
2018-11-10T06:25:49.089Z,15.58
2018-11-10T06:26:21.704Z,15.55
2018-11-10T06:26:54.384Z,15.32
2018-11-10T06:27:27.107Z,15.78
2018-11-10T06:27:59.818Z,16.17
2018-11-10T06:28:32.502Z,15.80
2018-11-10T06:29:05.180Z,15.55
2018-11-10T06:29:37.891Z,16.32
2018-11-10T06:30:11.460Z,15.65
2018-11-10T06:30:44.120Z,15.60
2018-11-10T06:31:16.785Z,15.95
2018-11-10T06:31:49.449Z,15.63
2018-11-10T06:32:22.173Z,15.53
2018-11-10T06:32:54.854Z,15.70
2018-11-10T06:33:27.505Z,15.72
2018-11-10T06:34:00.163Z,16.05
2018-11-10T06:34:32.832Z,15.72
2018-11-10T06:35:05.714Z,15.60
2018-11-10T06:35:38.378Z,16.35
2018-11-10T06:36:11.030Z,16.02
2018-11-10T06:36:43.682Z,16.20
2018-11-10T06:37:16.416Z,16.10
2018-11-10T06:37:49.111Z,16.15
2018-11-10T06:38:21.824Z,15.93
2018-11-10T06:38:54.478Z,16.17
2018-11-10T06:39:27.152Z,16.45
2018-11-10T06:39:59.810Z,16.40
2018-11-10T06:40:32.493Z,15.95
2018-11-10T06:41:05.457Z,15.80
2018-11-10T06:41:38.102Z,15.98
2018-11-10T06:42:10.768Z,16.42
2018-11-10T06:42:43.817Z,15.88
2018-11-10T06:43:16.486Z,15.38
2018-11-10T06:43:49.146Z,15.83
2018-11-10T06:44:21.823Z,15.95
2018-11-10T06:44:54.475Z,16.30
2018-11-10T06:45:27.154Z,15.40
2018-11-10T06:45:59.792Z,16.02
2018-11-10T06:46:32.465Z,16.05
2018-11-10T06:47:05.183Z,16.32
2018-11-10T06:47:38.312Z,16.20
2018-11-10T06:48:10.975Z,16.30
2018-11-10T06:48:43.620Z,16.00
2018-11-10T06:49:16.295Z,16.07
2018-11-10T06:49:48.941Z,16.07
2018-11-10T06:50:21.609Z,15.78
2018-11-10T06:50:54.308Z,15.80
2018-11-10T06:51:27.003Z,16.32
2018-11-10T06:51:59.655Z,16.35
2018-11-10T06:52:32.325Z,16.15
2018-11-10T06:53:05.264Z,15.93
2018-11-10T06:53:37.911Z,15.63
2018-11-10T06:54:10.626Z,15.90
2018-11-10T06:54:43.271Z,16.20
2018-11-10T06:55:15.941Z,16.20
2018-11-10T06:55:48.593Z,16.20
2018-11-10T06:56:21.276Z,15.60
2018-11-10T06:56:53.939Z,16.05
2018-11-10T06:57:26.689Z,15.88
2018-11-10T06:57:59.363Z,15.75
2018-11-10T06:58:32.024Z,16.02
2018-11-10T06:59:05.123Z,16.10
2018-11-10T06:59:37.786Z,15.93
2018-11-10T07:00:12.094Z,16.05
2018-11-10T07:00:44.777Z,15.50
2018-11-10T07:01:17.432Z,16.05
2018-11-10T07:01:50.097Z,16.02
2018-11-10T07:02:22.738Z,15.75
2018-11-10T07:02:55.407Z,15.65
2018-11-10T07:03:28.164Z,15.88
2018-11-10T07:04:00.938Z,16.50
2018-11-10T07:04:33.628Z,15.83